Time;durP1;ratioP1;P1;durP2;ratioP2;P2;SDS_P1;SDS_P2;PMS_P1;PMS_P2;Temp;Humidity;BMP_temperature;BMP_pressure;BME280_temperature;BME280_humidity;BME280_pressure;Samples;Min_cycle;Max_cycle;Signal;HPM_P1;HPM_P2
2021/03/10 00:00:59;;;;;;;0.52;0.10;;;21.50;51.60;;;;;;5047334;28;20026;-85
2021/03/10 00:03:25;;;;;;;1.17;0.20;;;21.40;51.60;;;;;;5039313;28;20051;-81
2021/03/10 00:05:50;;;;;;;0.60;0.20;;;21.40;51.60;;;;;;5060207;28;20316;-82
2021/03/10 00:08:16;;;;;;;1.20;0.20;;;21.40;51.60;;;;;;5065812;28;20025;-81
2021/03/10 00:10:41;;;;;;;0.80;0.20;;;21.40;51.70;;;;;;5045723;28;20032;-82
2021/03/10 00:13:08;;;;;;;0.50;0.20;;;21.30;51.90;;;;;;5061448;28;20074;-82
2021/03/10 00:15:34;;;;;;;0.68;0.10;;;21.40;52.20;;;;;;5058742;28;20025;-83
2021/03/10 00:18:00;;;;;;;0.40;0.10;;;21.30;52.10;;;;;;5058291;28;20044;-83
2021/03/10 00:20:25;;;;;;;0.50;0.20;;;21.40;52.30;;;;;;5046282;28;20111;-82
2021/03/10 00:22:51;;;;;;;1.50;0.20;;;21.30;52.40;;;;;;5055522;28;20104;-82
2021/03/10 00:25:18;;;;;;;0.30;0.10;;;21.30;52.40;;;;;;5054031;28;20044;-82
2021/03/10 00:27:44;;;;;;;0.40;0.10;;;21.30;52.60;;;;;;5030916;28;20022;-82
2021/03/10 00:30:10;;;;;;;0.47;0.10;;;21.30;52.50;;;;;;5051281;28;20024;-82
2021/03/10 00:32:37;;;;;;;0.40;0.10;;;21.30;52.70;;;;;;5057684;28;20021;-83
2021/03/10 00:35:04;;;;;;;0.40;0.10;;;21.30;52.70;;;;;;5033561;28;20025;-83
2021/03/10 00:37:30;;;;;;;0.50;0.20;;;21.30;52.90;;;;;;5045640;28;20094;-83
2021/03/10 00:39:56;;;;;;;0.70;0.20;;;21.20;52.90;;;;;;5033657;28;20489;-83
2021/03/10 00:42:22;;;;;;;0.50;0.10;;;21.30;53.10;;;;;;5056821;28;20028;-82
2021/03/10 00:44:48;;;;;;;0.85;0.10;;;21.20;53.00;;;;;;5060478;28;20025;-83
2021/03/10 00:47:14;;;;;;;0.57;0.20;;;21.20;53.20;;;;;;5034646;28;20093;-83
2021/03/10 00:49:42;;;;;;;0.52;0.10;;;21.20;53.50;;;;;;5055981;28;20107;-83
2021/03/10 00:52:07;;;;;;;0.40;0.13;;;21.20;53.60;;;;;;5053109;28;20025;-83
2021/03/10 00:54:34;;;;;;;0.77;0.20;;;21.20;53.70;;;;;;5054147;28;20040;-82
2021/03/10 00:57:00;;;;;;;0.30;0.10;;;21.10;54.10;;;;;;5053081;28;20487;-82
2021/03/10 00:59:25;;;;;;;0.47;0.10;;;21.10;54.40;;;;;;5058293;28;20055;-82
2021/03/10 01:01:51;;;;;;;0.40;0.10;;;21.00;54.80;;;;;;5055245;28;20030;-82
2021/03/10 01:04:18;;;;;;;0.30;0.10;;;21.10;55.00;;;;;;5053333;28;20492;-82
2021/03/10 01:06:43;;;;;;;0.57;0.17;;;21.10;55.50;;;;;;5059587;28;20032;-82
2021/03/10 01:09:09;;;;;;;0.80;0.20;;;21.00;55.80;;;;;;5067671;28;20033;-82
2021/03/10 01:11:35;;;;;;;0.43;0.15;;;21.10;56.30;;;;;;5069650;28;20032;-82
2021/03/10 01:14:02;;;;;;;0.93;0.13;;;21.00;57.00;;;;;;5064239;28;20028;-82
2021/03/10 01:16:28;;;;;;;0.60;0.10;;;21.00;57.40;;;;;;5058514;28;20016;-82
2021/03/10 01:18:55;;;;;;;0.43;0.10;;;21.00;58.20;;;;;;5059034;28;20029;-82
2021/03/10 01:21:21;;;;;;;0.80;0.20;;;21.00;58.90;;;;;;5051874;28;20032;-81
2021/03/10 01:23:47;;;;;;;0.90;0.28;;;21.00;59.60;;;;;;5065765;28;20095;-82
2021/03/10 01:26:12;;;;;;;0.30;0.10;;;21.00;60.70;;;;;;5059606;28;20029;-82
2021/03/10 01:28:39;;;;;;;0.88;0.13;;;21.00;62.80;;;;;;5053545;28;20021;-82
2021/03/10 01:31:05;;;;;;;1.20;0.20;;;21.00;53.30;;;;;;5046372;28;20082;-83
2021/03/10 01:33:30;;;;;;;0.60;0.20;;;21.00;53.30;;;;;;5044578;28;20968;-82
2021/03/10 01:35:56;;;;;;;0.55;0.20;;;20.90;53.30;;;;;;5065426;28;20028;-81
2021/03/10 01:38:21;;;;;;;2.13;0.20;;;21.00;53.50;;;;;;5056369;28;20030;-82
2021/03/10 01:40:47;;;;;;;0.60;0.17;;;20.90;53.60;;;;;;5069451;28;20025;-81
2021/03/10 01:43:13;;;;;;;0.68;0.20;;;20.90;53.50;;;;;;5060606;28;20037;-81
2021/03/10 01:45:39;;;;;;;0.40;0.10;;;21.00;53.80;;;;;;5054451;28;20099;-80
2021/03/10 01:48:07;;;;;;;0.60;0.20;;;20.90;53.90;;;;;;5033621;28;20076;-81
2021/03/10 01:50:34;;;;;;;0.50;0.20;;;20.90;54.10;;;;;;5063682;28;20035;-81
2021/03/10 01:53:01;;;;;;;0.50;0.17;;;20.90;54.30;;;;;;5055966;28;20025;-81
2021/03/10 01:55:27;;;;;;;0.77;0.20;;;20.90;54.40;;;;;;5058235;28;20088;-81
2021/03/10 01:57:52;;;;;;;0.50;0.20;;;20.80;54.90;;;;;;5064485;28;20301;-82
2021/03/10 02:00:19;;;;;;;1.00;0.20;;;20.80;55.10;;;;;;5057879;28;20036;-82
2021/03/10 02:02:45;;;;;;;0.85;0.35;;;20.90;55.40;;;;;;5054079;28;20036;-81
2021/03/10 02:05:15;;;;;;;0.47;0.10;;;20.80;55.60;;;;;;5064434;28;20025;-81
2021/03/10 02:08:05;;;;;;;0.38;0.10;;;20.80;55.80;;;;;;5102920;27;20383;-47
2021/03/10 02:10:45;;;;;;;0.80;0.20;;;20.80;57.00;;;;;;5102812;28;20028;-42
2021/03/10 02:13:35;;;;;;;0.32;0.10;;;20.80;59.10;;;;;;5103209;28;20184;-42
2021/03/10 02:16:27;;;;;;;0.57;0.20;;;20.80;58.10;;;;;;5102027;28;20502;-45
2021/03/10 02:19:00;;;;;;;0.50;0.10;;;20.80;57.50;;;;;;5100794;28;20043;-47
2021/03/10 02:21:29;;;;;;;0.40;0.20;;;20.80;57.90;;;;;;5105076;28;20396;-46
2021/03/10 02:24:23;;;;;;;0.40;0.10;;;20.70;57.80;;;;;;5104126;28;20523;-42
2021/03/10 02:27:33;;;;;;;0.60;0.17;;;20.70;57.70;;;;;;5102811;28;20031;-47
2021/03/10 02:30:05;;;;;;;0.50;0.10;;;20.70;57.90;;;;;;5103614;28;20507;-39
2021/03/10 02:32:40;;;;;;;0.40;0.20;;;20.70;57.90;;;;;;5100451;28;20151;-42
2021/03/10 02:35:08;;;;;;;0.70;0.17;;;20.70;57.90;;;;;;5104022;28;20040;-42
2021/03/10 02:37:37;;;;;;;0.93;0.20;;;20.70;57.70;;;;;;5103192;28;20036;-44
2021/03/10 02:40:08;;;;;;;1.13;0.20;;;20.70;57.80;;;;;;5102872;28;20063;-42
2021/03/10 02:42:35;;;;;;;1.50;0.30;;;20.70;57.90;;;;;;5102593;28;20044;-44
2021/03/10 02:45:02;;;;;;;0.52;0.20;;;20.70;58.30;;;;;;5102442;28;20508;-44
2021/03/10 02:47:28;;;;;;;0.60;0.10;;;20.70;58.80;;;;;;5103764;28;20032;-43
2021/03/10 02:49:55;;;;;;;0.47;0.10;;;20.60;59.30;;;;;;5103621;28;20035;-46
2021/03/10 02:52:22;;;;;;;0.57;0.10;;;20.60;57.80;;;;;;5110659;28;20035;-46
2021/03/10 02:54:50;;;;;;;0.40;0.20;;;20.60;57.90;;;;;;5111563;28;20053;-45
2021/03/10 02:57:16;;;;;;;0.60;0.10;;;20.60;58.40;;;;;;5108891;28;20073;-50
2021/03/10 02:59:44;;;;;;;0.50;0.10;;;20.60;58.90;;;;;;5108084;28;20044;-45
2021/03/10 03:02:10;;;;;;;0.50;0.17;;;20.60;58.70;;;;;;5101609;28;20434;-44
2021/03/10 03:04:36;;;;;;;0.77;0.13;;;20.60;59.00;;;;;;5103867;28;20031;-44
2021/03/10 03:07:02;;;;;;;0.30;0.10;;;20.60;59.90;;;;;;5104460;28;20032;-45
2021/03/10 03:09:28;;;;;;;0.47;0.10;;;20.60;62.90;;;;;;5101763;28;20103;-43
2021/03/10 03:11:54;;;;;;;1.13;0.20;;;20.60;59.90;;;;;;5103232;28;20085;-43
2021/03/10 03:14:20;;;;;;;0.38;0.10;;;20.60;59.70;;;;;;5101813;28;20063;-45
2021/03/10 03:16:47;;;;;;;1.10;0.15;;;20.60;59.30;;;;;;5102495;27;20093;-45
2021/03/10 03:19:13;;;;;;;0.57;0.17;;;20.60;59.40;;;;;;5090222;28;20065;-47
2021/03/10 03:21:39;;;;;;;0.40;0.20;;;20.60;59.10;;;;;;5088432;28;20109;-46
2021/03/10 03:24:06;;;;;;;0.50;0.10;;;20.60;59.30;;;;;;5086749;28;20178;-43
2021/03/10 03:26:33;;;;;;;1.02;0.10;;;20.60;59.70;;;;;;5087715;28;20020;-46
2021/03/10 03:28:58;;;;;;;0.40;0.20;;;20.50;59.70;;;;;;5089326;28;20031;-44
2021/03/10 03:31:26;;;;;;;0.30;0.10;;;20.50;60.00;;;;;;5088728;28;20017;-44
2021/03/10 03:33:51;;;;;;;0.50;0.20;;;20.50;59.80;;;;;;5087475;28;20032;-45
2021/03/10 03:36:17;;;;;;;0.30;0.10;;;20.50;59.50;;;;;;5090592;28;20109;-45
2021/03/10 03:38:43;;;;;;;0.20;0.10;;;20.50;59.40;;;;;;5088281;28;20132;-46
2021/03/10 03:41:09;;;;;;;0.40;0.10;;;20.50;59.10;;;;;;5088392;28;20043;-46
2021/03/10 03:43:35;;;;;;;0.28;0.10;;;20.50;59.30;;;;;;5088624;28;20409;-42
2021/03/10 03:46:01;;;;;;;0.57;0.20;;;20.50;58.90;;;;;;5090052;28;20818;-42
2021/03/10 03:48:28;;;;;;;0.25;0.10;;;20.50;58.70;;;;;;5087525;28;20094;-44
2021/03/10 03:50:54;;;;;;;0.40;0.10;;;20.50;58.80;;;;;;5086855;28;20107;-44
2021/03/10 03:53:19;;;;;;;0.30;0.10;;;20.50;59.00;;;;;;5089788;28;20449;-44
2021/03/10 03:55:45;;;;;;;0.20;0.10;;;20.50;59.00;;;;;;5087237;28;20027;-45
2021/03/10 03:58:11;;;;;;;0.30;0.10;;;20.50;59.30;;;;;;5085523;28;20025;-42
2021/03/10 04:00:37;;;;;;;0.30;0.10;;;20.50;59.20;;;;;;5088145;28;20042;-45
2021/03/10 04:03:02;;;;;;;0.82;0.10;;;20.50;59.50;;;;;;5088626;28;20463;-45
2021/03/10 04:05:28;;;;;;;0.35;0.10;;;20.50;59.70;;;;;;5088028;28;20034;-44
2021/03/10 04:07:59;;;;;;;1.42;0.10;;;20.40;59.70;;;;;;5087847;28;20507;-42
2021/03/10 04:10:27;;;;;;;0.40;0.10;;;20.40;60.30;;;;;;5087189;28;20028;-44
2021/03/10 04:12:53;;;;;;;0.40;0.10;;;20.40;59.90;;;;;;5087554;28;20032;-46
2021/03/10 04:15:20;;;;;;;0.32;0.10;;;20.40;59.00;;;;;;5087733;28;20020;-44
2021/03/10 04:17:46;;;;;;;0.28;0.10;;;20.40;59.50;;;;;;5087911;28;20034;-48
2021/03/10 04:20:14;;;;;;;0.45;0.20;;;20.40;59.00;;;;;;5094043;28;20047;-43
2021/03/10 04:22:40;;;;;;;0.80;0.20;;;20.40;60.00;;;;;;5094964;28;20070;-47
2021/03/10 04:25:07;;;;;;;0.30;0.10;;;20.40;59.60;;;;;;5094265;28;20040;-43
2021/03/10 04:27:33;;;;;;;0.32;0.10;;;20.40;59.30;;;;;;5091203;28;20059;-46
2021/03/10 04:29:59;;;;;;;0.30;0.10;;;20.40;59.10;;;;;;5088368;28;20740;-42
2021/03/10 04:32:25;;;;;;;0.40;0.10;;;20.40;59.00;;;;;;5086883;28;20077;-44
2021/03/10 04:34:51;;;;;;;0.57;0.10;;;20.40;59.00;;;;;;5088101;28;20024;-42
2021/03/10 04:37:16;;;;;;;0.30;0.10;;;20.40;58.80;;;;;;5088673;28;20143;-44
2021/03/10 04:39:42;;;;;;;0.90;0.20;;;20.30;59.40;;;;;;5088466;28;20111;-39
2021/03/10 04:42:08;;;;;;;0.40;0.10;;;20.30;58.70;;;;;;5086063;28;20032;-45
2021/03/10 04:44:34;;;;;;;1.17;0.20;;;20.30;58.80;;;;;;5084435;28;20373;-44
2021/03/10 04:46:59;;;;;;;0.50;0.15;;;20.30;58.60;;;;;;5087310;28;20036;-44
2021/03/10 04:49:25;;;;;;;0.50;0.20;;;20.30;58.90;;;;;;5087096;28;20032;-43
2021/03/10 04:51:50;;;;;;;0.20;0.10;;;20.40;58.70;;;;;;5087417;28;20043;-43
2021/03/10 04:54:16;;;;;;;0.50;0.20;;;20.30;58.60;;;;;;5086219;28;20027;-46
2021/03/10 04:56:42;;;;;;;1.08;0.30;;;20.30;58.60;;;;;;5088605;28;20098;-43
2021/03/10 04:59:07;;;;;;;0.63;0.20;;;20.30;58.60;;;;;;5087721;28;20039;-40
2021/03/10 05:01:33;;;;;;;0.38;0.13;;;20.30;58.50;;;;;;5087719;28;20025;-46
2021/03/10 05:03:58;;;;;;;0.57;0.20;;;20.30;58.40;;;;;;5087367;28;20053;-43
2021/03/10 05:06:24;;;;;;;0.68;0.20;;;20.20;58.40;;;;;;5086146;28;20058;-43
2021/03/10 05:08:49;;;;;;;0.30;0.10;;;20.30;58.50;;;;;;5086661;28;20082;-43
2021/03/10 05:11:15;;;;;;;0.77;0.25;;;20.30;58.50;;;;;;5086189;28;20103;-47
2021/03/10 05:13:40;;;;;;;0.82;0.10;;;20.30;58.50;;;;;;5086421;28;20474;-44
2021/03/10 05:16:06;;;;;;;0.95;0.20;;;20.20;58.50;;;;;;5086907;28;20409;-44
2021/03/10 05:18:32;;;;;;;0.45;0.15;;;20.20;58.30;;;;;;5086779;28;20088;-46
2021/03/10 05:20:57;;;;;;;0.65;0.15;;;20.20;58.40;;;;;;5084769;28;20032;-47
2021/03/10 05:23:23;;;;;;;0.52;0.20;;;20.20;58.30;;;;;;5086192;28;20039;-44
2021/03/10 05:25:48;;;;;;;0.60;0.20;;;20.20;58.60;;;;;;5086234;28;20119;-45
2021/03/10 05:28:14;;;;;;;1.20;0.25;;;20.20;58.50;;;;;;5087988;28;20501;-44
2021/03/10 05:30:40;;;;;;;0.60;0.20;;;20.20;58.40;;;;;;5086051;28;20489;-43
2021/03/10 05:33:05;;;;;;;0.60;0.20;;;20.20;57.80;;;;;;5084513;28;20070;-45
2021/03/10 05:35:31;;;;;;;0.50;0.20;;;20.20;57.90;;;;;;5084907;28;20028;-47
2021/03/10 05:37:56;;;;;;;0.40;0.20;;;20.20;57.90;;;;;;5086334;28;20474;-43
2021/03/10 05:40:23;;;;;;;0.73;0.10;;;20.20;58.00;;;;;;5087190;28;20028;-43
2021/03/10 05:42:49;;;;;;;0.40;0.20;;;20.20;57.90;;;;;;5085457;28;20028;-42
2021/03/10 05:45:15;;;;;;;0.70;0.20;;;20.20;58.00;;;;;;5086969;28;20032;-47
2021/03/10 05:47:41;;;;;;;0.47;0.10;;;20.10;58.10;;;;;;5086261;28;20042;-48
2021/03/10 05:50:07;;;;;;;0.40;0.20;;;20.10;58.10;;;;;;5090337;28;20055;-43
2021/03/10 05:52:36;;;;;;;0.47;0.20;;;20.10;58.20;;;;;;5091540;28;20039;-46
2021/03/10 05:55:03;;;;;;;0.45;0.10;;;20.10;58.40;;;;;;5089307;28;20054;-42
2021/03/10 05:57:29;;;;;;;0.57;0.30;;;20.10;58.60;;;;;;5092668;28;20036;-42
2021/03/10 05:59:54;;;;;;;0.47;0.20;;;20.10;58.60;;;;;;5093472;28;20034;-43
2021/03/10 06:02:20;;;;;;;0.68;0.30;;;20.10;58.80;;;;;;5092135;28;20024;-42
2021/03/10 06:04:45;;;;;;;0.50;0.20;;;20.10;59.10;;;;;;5088766;28;20043;-44
2021/03/10 06:07:19;;;;;;;0.68;0.20;;;20.10;59.30;;;;;;5085471;28;20032;-45
2021/03/10 06:09:59;;;;;;;0.45;0.10;;;20.10;60.30;;;;;;5083657;28;20036;-43
2021/03/10 06:12:39;;;;;;;0.43;0.20;;;20.10;59.80;;;;;;5087462;28;20055;-43
2021/03/10 06:15:07;;;;;;;0.50;0.20;;;20.00;58.50;;;;;;5084291;28;20032;-43
2021/03/10 06:17:44;;;;;;;0.52;0.20;;;20.10;58.30;;;;;;5086601;28;20024;-41
2021/03/10 06:20:21;;;;;;;0.57;0.20;;;20.20;57.60;;;;;;5083361;28;20069;-44
2021/03/10 06:22:46;;;;;;;0.35;0.10;;;20.40;57.50;;;;;;5087000;28;20081;-42
2021/03/10 06:25:12;;;;;;;0.45;0.20;;;20.60;57.30;;;;;;5083929;28;20553;-46
2021/03/10 06:27:51;;;;;;;0.50;0.20;;;20.80;57.20;;;;;;5083378;28;20071;-44
2021/03/10 06:30:17;;;;;;;0.60;0.15;;;20.80;56.50;;;;;;5084426;28;20516;-44
2021/03/10 06:32:42;;;;;;;0.55;0.20;;;20.90;56.20;;;;;;5085571;28;20179;-45
2021/03/10 06:35:08;;;;;;;0.70;0.20;;;20.90;56.00;;;;;;5085326;28;20119;-43
2021/03/10 06:37:34;;;;;;;0.40;0.20;;;21.00;56.10;;;;;;5085297;28;20081;-43
2021/03/10 06:40:11;;;;;;;0.70;0.30;;;21.10;55.80;;;;;;5085998;28;20024;-44
2021/03/10 06:42:37;;;;;;;0.50;0.20;;;21.10;55.90;;;;;;5085776;28;20036;-41
2021/03/10 06:45:05;;;;;;;0.50;0.10;;;21.10;55.90;;;;;;5085663;28;20616;-41
2021/03/10 06:47:36;;;;;;;0.35;0.20;;;21.20;55.80;;;;;;5085530;28;20031;-42
2021/03/10 06:50:02;;;;;;;0.40;0.20;;;21.20;55.70;;;;;;5085930;28;20091;-45
2021/03/10 06:52:28;;;;;;;1.75;0.30;;;21.20;55.70;;;;;;5085695;28;20576;-47
2021/03/10 06:54:58;;;;;;;0.95;0.20;;;21.30;55.30;;;;;;5090469;28;20091;-41
2021/03/10 06:57:25;;;;;;;0.65;0.20;;;21.30;55.50;;;;;;5088795;28;20028;-45
2021/03/10 06:59:55;;;;;;;0.63;0.20;;;21.30;55.40;;;;;;5089083;28;20032;-44
2021/03/10 07:02:33;;;;;;;0.93;0.10;;;21.40;55.20;;;;;;5091205;28;20130;-45
2021/03/10 07:05:00;;;;;;;0.77;0.20;;;21.40;55.10;;;;;;5089114;28;20044;-45
2021/03/10 07:07:30;;;;;;;0.95;0.17;;;21.40;55.10;;;;;;5089411;28;20101;-42
2021/03/10 07:09:56;;;;;;;1.00;0.20;;;21.40;55.20;;;;;;5087649;28;20103;-42
2021/03/10 07:12:24;;;;;;;1.08;0.30;;;21.40;55.00;;;;;;5087292;28;20733;-43
2021/03/10 07:14:50;;;;;;;1.63;0.20;;;21.40;55.10;;;;;;5089846;28;20031;-41
2021/03/10 07:17:18;;;;;;;1.05;0.30;;;21.40;55.10;;;;;;5090200;28;20024;-42
2021/03/10 07:19:45;;;;;;;0.90;0.40;;;21.40;55.30;;;;;;5091716;28;20047;-45
2021/03/10 07:22:26;;;;;;;0.60;0.20;;;21.40;54.90;;;;;;5096428;28;20080;-44
2021/03/10 07:25:07;;;;;;;0.50;0.20;;;21.30;55.10;;;;;;5097726;28;20024;-45
2021/03/10 07:27:45;;;;;;;1.67;0.20;;;21.30;55.20;;;;;;5097228;28;20039;-47
2021/03/10 07:30:11;;;;;;;1.15;0.20;;;21.30;55.20;;;;;;5087604;28;20146;-45
2021/03/10 07:32:37;;;;;;;0.60;0.20;;;21.20;55.20;;;;;;5086645;28;20039;-44
2021/03/10 07:35:12;;;;;;;0.40;0.20;;;21.20;55.30;;;;;;5090110;28;20028;-45
2021/03/10 07:37:51;;;;;;;1.70;0.30;;;21.20;55.50;;;;;;5087191;28;20047;-44
2021/03/10 07:40:17;;;;;;;0.30;0.10;;;21.10;55.50;;;;;;5087816;28;20401;-43
2021/03/10 07:42:58;;;;;;;0.50;0.20;;;21.10;55.70;;;;;;5088516;28;20060;-39
2021/03/10 07:45:41;;;;;;;1.52;0.32;;;21.10;55.80;;;;;;5086552;28;20447;-40
2021/03/10 07:48:07;;;;;;;2.58;0.73;;;21.00;55.80;;;;;;5085992;28;20024;-41
2021/03/10 07:50:45;;;;;;;1.23;0.20;;;21.00;55.70;;;;;;5087425;28;20055;-42
2021/03/10 07:53:11;;;;;;;0.88;0.38;;;21.00;55.80;;;;;;5087253;28;20103;-45
2021/03/10 07:55:43;;;;;;;0.90;0.20;;;21.00;55.80;;;;;;5086497;28;20652;-44
2021/03/10 07:58:09;;;;;;;0.52;0.20;;;20.90;55.70;;;;;;5087617;28;20020;-45
2021/03/10 08:00:36;;;;;;;2.05;0.20;;;21.00;55.60;;;;;;5084577;28;20045;-47
2021/03/10 08:03:02;;;;;;;0.63;0.20;;;21.00;55.60;;;;;;5085735;28;20027;-46
2021/03/10 08:05:29;;;;;;;1.08;0.30;;;21.00;55.70;;;;;;5087088;28;20040;-46
2021/03/10 08:08:12;;;;;;;5.95;0.60;;;20.90;37.40;;;;;;5086715;28;20489;-47
2021/03/10 08:10:39;;;;;;;3.50;0.28;;;21.00;37.70;;;;;;5085216;28;20063;-47
2021/03/10 08:13:19;;;;;;;1.77;0.30;;;21.00;37.70;;;;;;5075921;22;20018;-46
2021/03/10 08:15:45;;;;;;;0.60;0.20;;;21.00;38.00;;;;;;5005299;28;20053;-48
2021/03/10 08:18:12;;;;;;;1.73;0.30;;;21.10;38.00;;;;;;5006227;28;20415;-46
2021/03/10 08:20:38;;;;;;;1.15;0.50;;;21.00;38.10;;;;;;5014234;28;20211;-52
2021/03/10 08:23:04;;;;;;;0.60;0.30;;;21.00;38.00;;;;;;5012311;28;20050;-50
2021/03/10 08:25:33;;;;;;;2.03;0.30;;;21.00;38.60;;;;;;5003007;28;20059;-49
2021/03/10 08:28:10;;;;;;;0.70;0.30;;;21.00;38.10;;;;;;5005736;28;20443;-49
2021/03/10 08:30:36;;;;;;;0.65;0.20;;;21.10;38.30;;;;;;5005020;28;20045;-48
2021/03/10 08:33:04;;;;;;;0.88;0.20;;;21.00;38.20;;;;;;5007241;28;20033;-48
2021/03/10 08:35:30;;;;;;;0.40;0.20;;;21.00;38.10;;;;;;5006277;28;20483;-49
2021/03/10 08:37:59;;;;;;;1.30;0.25;;;21.00;38.10;;;;;;5007545;28;20040;-48
2021/03/10 08:40:29;;;;;;;0.98;0.28;;;21.00;38.30;;;;;;5007872;28;20026;-48
2021/03/10 08:42:59;;;;;;;1.05;0.30;;;21.00;38.30;;;;;;5005698;28;20040;-44
2021/03/10 08:45:27;;;;;;;0.55;0.32;;;21.00;38.30;;;;;;5006993;28;20030;-52
2021/03/10 08:48:00;;;;;;;1.48;0.38;;;21.10;38.10;;;;;;5005927;28;20554;-48
2021/03/10 08:50:30;;;;;;;1.48;0.32;;;21.10;38.30;;;;;;5005422;28;20033;-49
2021/03/10 08:52:56;;;;;;;1.40;0.40;;;21.00;38.60;;;;;;5008797;28;20113;-49
2021/03/10 08:55:24;;;;;;;1.42;0.52;;;21.10;38.40;;;;;;5006237;28;20125;-46
2021/03/10 08:57:51;;;;;;;3.90;0.43;;;21.00;38.90;;;;;;5007871;28;20049;-48
2021/03/10 09:00:22;;;;;;;0.57;0.20;;;21.10;38.40;;;;;;5009732;28;20491;-47
2021/03/10 09:02:49;;;;;;;0.98;0.50;;;21.00;38.40;;;;;;5009649;28;20100;-47
2021/03/10 09:05:17;;;;;;;1.00;0.47;;;21.10;38.40;;;;;;5006867;28;20092;-49
2021/03/10 09:07:46;;;;;;;0.90;0.40;;;21.20;38.40;;;;;;5008307;28;20406;-47
2021/03/10 09:10:17;;;;;;;1.95;0.77;;;21.10;38.00;;;;;;5005549;28;20132;-51
2021/03/10 09:12:45;;;;;;;1.33;0.60;;;21.20;38.10;;;;;;5004741;28;20102;-47
2021/03/10 09:15:13;;;;;;;1.00;0.40;;;21.30;37.90;;;;;;5003456;28;20034;-51
2021/03/10 09:17:39;;;;;;;2.20;0.45;;;21.40;37.80;;;;;;5006667;28;20033;-50
2021/03/10 09:20:09;;;;;;;0.90;0.38;;;21.50;37.70;;;;;;5008682;28;20483;-45
2021/03/10 09:22:43;;;;;;;1.40;0.47;;;21.70;37.80;;;;;;5006097;28;20487;-45
2021/03/10 09:25:11;;;;;;;2.17;0.60;;;21.80;37.60;;;;;;5003619;28;20034;-48
2021/03/10 09:27:37;;;;;;;0.88;0.60;;;21.90;37.20;;;;;;5004030;28;20529;-47
2021/03/10 09:30:10;;;;;;;1.25;0.60;;;22.00;37.20;;;;;;5003757;28;20079;-49
2021/03/10 09:32:41;;;;;;;0.77;0.47;;;22.00;37.20;;;;;;5005443;28;20473;-46
2021/03/10 09:35:34;;;;;;;0.75;0.38;;;22.00;37.10;;;;;;5004417;28;20084;-43
2021/03/10 09:38:06;;;;;;;1.25;0.68;;;22.10;37.10;;;;;;5001855;28;20065;-49
2021/03/10 09:40:50;;;;;;;;;;;22.10;37.20;;;;;;5005761;28;20030;-48
2021/03/10 09:43:18;;;;;;;1.13;0.65;;;22.10;37.50;;;;;;5006713;28;20004;-43
2021/03/10 09:45:45;;;;;;;1.80;0.63;;;22.10;37.60;;;;;;5008202;28;20431;-47
2021/03/10 09:48:14;;;;;;;1.05;0.50;;;22.10;37.60;;;;;;5005444;28;20026;-47
2021/03/10 09:50:43;;;;;;;0.85;0.50;;;22.10;37.60;;;;;;5005250;28;20030;-47
2021/03/10 09:53:21;;;;;;;0.90;0.40;;;22.10;37.80;;;;;;5005774;28;20030;-51
2021/03/10 09:55:48;;;;;;;1.10;0.50;;;22.10;37.80;;;;;;5004502;28;20065;-47
2021/03/10 09:58:13;;;;;;;1.77;0.50;;;22.10;37.70;;;;;;5008129;28;20054;-50
2021/03/10 10:00:41;;;;;;;1.20;0.50;;;22.10;37.80;;;;;;5008422;28;20060;-48
2021/03/10 10:03:08;;;;;;;1.40;0.57;;;22.10;37.90;;;;;;5003985;28;20033;-49
2021/03/10 10:05:36;;;;;;;1.33;0.85;;;22.00;38.00;;;;;;5005598;28;20496;-51
2021/03/10 10:08:04;;;;;;;1.52;0.60;;;22.00;38.10;;;;;;5003211;28;20030;-52
2021/03/10 10:10:30;;;;;;;1.35;0.40;;;22.00;38.20;;;;;;5003199;28;20576;-45
2021/03/10 10:12:57;;;;;;;2.47;0.90;;;22.00;38.20;;;;;;5005217;28;20512;-48
2021/03/10 10:15:25;;;;;;;1.00;0.60;;;22.00;38.00;;;;;;5005021;28;20132;-45
2021/03/10 10:17:56;;;;;;;1.40;0.40;;;21.80;38.00;;;;;;5003771;28;20103;-43
2021/03/10 10:20:31;;;;;;;1.77;0.80;;;21.80;38.20;;;;;;5005679;28;20440;-47
2021/03/10 10:22:56;;;;;;;1.08;0.45;;;21.90;38.00;;;;;;5005493;28;20030;-48
2021/03/10 10:25:22;;;;;;;3.17;1.08;;;22.00;38.10;;;;;;5005818;28;20051;-43
2021/03/10 10:27:49;;;;;;;1.25;0.60;;;22.00;38.00;;;;;;5005672;28;20038;-43
2021/03/10 10:30:17;;;;;;;1.42;0.57;;;22.00;38.10;;;;;;5009039;28;20022;-45
2021/03/10 10:32:43;;;;;;;3.25;0.47;;;22.00;38.00;;;;;;5009946;28;20505;-43
2021/03/10 10:35:11;;;;;;;1.58;0.73;;;22.00;38.30;;;;;;5006905;28;20504;-47
2021/03/10 10:37:36;;;;;;;1.35;0.75;;;22.00;38.30;;;;;;5010193;28;20042;-45
2021/03/10 10:40:07;;;;;;;1.30;0.65;;;21.90;38.20;;;;;;5008778;28;20036;-46
2021/03/10 10:42:34;;;;;;;0.90;0.40;;;21.90;38.30;;;;;;5009123;28;20052;-44
2021/03/10 10:44:59;;;;;;;1.08;0.60;;;21.90;38.30;;;;;;5009184;28;20439;-45
2021/03/10 10:47:26;;;;;;;1.88;0.57;;;21.90;38.40;;;;;;5008754;28;20052;-44
2021/03/10 10:49:52;;;;;;;1.30;0.55;;;21.90;38.40;;;;;;5009084;28;20018;-42
2021/03/10 10:52:19;;;;;;;1.90;0.40;;;21.90;38.50;;;;;;5010342;28;20132;-44
2021/03/10 10:54:44;;;;;;;1.00;0.45;;;22.00;38.50;;;;;;5007565;28;20422;-44
2021/03/10 10:57:10;;;;;;;1.10;0.50;;;21.90;38.50;;;;;;5006577;28;20040;-43
2021/03/10 10:59:36;;;;;;;1.80;0.50;;;21.90;38.50;;;;;;5010815;28;20395;-48
2021/03/10 11:02:02;;;;;;;1.00;0.52;;;21.90;38.60;;;;;;5007996;28;20083;-45
2021/03/10 11:04:27;;;;;;;1.02;0.47;;;21.90;38.60;;;;;;5008268;28;20048;-45
2021/03/10 11:06:53;;;;;;;1.17;0.60;;;21.90;38.50;;;;;;5008296;28;20029;-41
2021/03/10 11:09:18;;;;;;;1.80;0.70;;;21.90;38.60;;;;;;5007218;28;20029;-44
2021/03/10 11:11:44;;;;;;;1.88;0.60;;;21.90;38.70;;;;;;5006720;28;20030;-44
2021/03/10 11:14:10;;;;;;;1.52;0.60;;;21.80;38.80;;;;;;5008458;28;20034;-43
2021/03/10 11:16:35;;;;;;;1.67;0.50;;;21.80;38.80;;;;;;5010438;28;20632;-46
2021/03/10 11:19:01;;;;;;;1.42;0.80;;;21.80;38.80;;;;;;5006801;28;20038;-45
2021/03/10 11:21:26;;;;;;;1.55;0.73;;;21.90;38.70;;;;;;5010461;28;20113;-46
2021/03/10 11:23:52;;;;;;;0.95;0.50;;;21.90;38.60;;;;;;5008047;28;20048;-46
2021/03/10 11:26:18;;;;;;;9.50;1.02;;;21.80;38.60;;;;;;5009324;28;20041;-43
2021/03/10 11:28:43;;;;;;;1.60;0.70;;;21.80;38.80;;;;;;5008093;28;20111;-48
2021/03/10 11:31:09;;;;;;;1.23;0.47;;;21.80;38.90;;;;;;5007274;28;20667;-44
2021/03/10 11:33:35;;;;;;;1.50;0.65;;;21.90;38.80;;;;;;5005642;28;20038;-49
2021/03/10 11:36:02;;;;;;;0.95;0.50;;;21.80;38.80;;;;;;5008575;28;21138;-51
2021/03/10 11:38:28;;;;;;;2.00;0.70;;;21.80;39.00;;;;;;5007350;28;20034;-51
2021/03/10 11:40:54;;;;;;;1.20;0.60;;;21.80;38.90;;;;;;5006711;28;20048;-48
2021/03/10 11:43:19;;;;;;;1.30;0.90;;;21.80;38.90;;;;;;5006528;28;20569;-50
2021/03/10 11:45:45;;;;;;;1.33;0.57;;;21.80;38.90;;;;;;5011966;28;20046;-50
2021/03/10 11:48:11;;;;;;;0.93;0.55;;;21.90;38.90;;;;;;5006152;28;20042;-52
2021/03/10 11:50:37;;;;;;;1.52;0.68;;;21.90;38.90;;;;;;5005487;28;20080;-51
2021/03/10 11:53:04;;;;;;;0.95;0.60;;;21.90;38.80;;;;;;5005953;28;20499;-50
2021/03/10 11:55:30;;;;;;;2.50;0.77;;;21.90;38.90;;;;;;5007286;28;20038;-51
2021/03/10 11:57:56;;;;;;;0.80;0.40;;;21.90;39.00;;;;;;5006882;28;20042;-50
2021/03/10 12:00:22;;;;;;;1.40;0.68;;;21.90;39.10;;;;;;5008013;28;20388;-51
2021/03/10 12:02:48;;;;;;;0.82;0.50;;;21.80;39.00;;;;;;5006314;28;20491;-52
2021/03/10 12:05:14;;;;;;;1.88;0.60;;;21.80;38.90;;;;;;5006456;28;20030;-47
2021/03/10 12:07:40;;;;;;;1.48;0.52;;;21.80;39.00;;;;;;5004875;28;20030;-48
2021/03/10 12:10:06;;;;;;;0.90;0.60;;;21.80;39.10;;;;;;5005810;28;20029;-50
2021/03/10 12:12:32;;;;;;;2.75;0.40;;;21.80;39.10;;;;;;5009130;28;20034;-50
2021/03/10 12:14:57;;;;;;;1.20;0.47;;;21.90;39.00;;;;;;5006861;28;20042;-51
2021/03/10 12:17:23;;;;;;;1.33;0.60;;;21.90;39.00;;;;;;5007147;28;20037;-51
2021/03/10 12:19:48;;;;;;;1.88;0.55;;;21.80;39.10;;;;;;5007970;28;20084;-50
2021/03/10 12:22:14;;;;;;;1.52;0.52;;;21.80;39.10;;;;;;5002990;28;20434;-51
2021/03/10 12:24:44;;;;;;;0.75;0.55;;;21.80;39.20;;;;;;5003007;28;20096;-52
2021/03/10 12:27:10;;;;;;;0.75;0.43;;;21.80;39.20;;;;;;5007772;28;20033;-48
2021/03/10 12:29:35;;;;;;;1.30;0.43;;;21.80;39.10;;;;;;5006239;28;20041;-48
2021/03/10 12:32:01;;;;;;;0.80;0.60;;;21.80;39.10;;;;;;5006754;28;20033;-52
2021/03/10 12:34:27;;;;;;;5.03;0.55;;;21.80;39.20;;;;;;5008389;28;20037;-50
2021/03/10 12:36:52;;;;;;;1.10;0.70;;;21.80;39.10;;;;;;5007108;28;20080;-50
2021/03/10 12:39:18;;;;;;;1.45;0.52;;;21.80;39.20;;;;;;5005960;28;20030;-51
2021/03/10 12:41:43;;;;;;;1.50;0.60;;;21.80;39.20;;;;;;5006391;28;20037;-50
2021/03/10 12:44:09;;;;;;;1.77;0.45;;;21.80;39.20;;;;;;5005752;28;20096;-52
2021/03/10 12:46:35;;;;;;;0.98;0.50;;;21.80;39.20;;;;;;5008288;28;20045;-52
2021/03/10 12:49:00;;;;;;;0.95;0.50;;;21.80;39.30;;;;;;5009125;28;20044;-51
2021/03/10 12:51:26;;;;;;;2.13;0.63;;;21.70;39.30;;;;;;5005907;28;20033;-50